createdAt,value
2023-02-11T00:00:42.245Z,86842.38
2023-02-11T00:03:09.501Z,86836.38
2023-02-11T00:05:36.485Z,86849.88
2023-02-11T00:08:03.523Z,86852.34
2023-02-11T00:10:30.484Z,86855.03
2023-02-11T00:12:57.298Z,86853.75
2023-02-11T00:15:31.411Z,86850.22
2023-02-11T00:17:58.356Z,86851.03
2023-02-11T00:20:25.253Z,86851.63
2023-02-11T00:22:52.054Z,86852.34
2023-02-11T00:25:22.311Z,86844.81
2023-02-11T00:27:49.419Z,86847.53
2023-02-11T00:30:20.550Z,86849.75
2023-02-11T00:32:47.470Z,86850.34
2023-02-11T00:35:14.485Z,86848.22
2023-02-11T00:37:41.292Z,86852.94
2023-02-11T00:40:09.610Z,86848.59
2023-02-11T00:42:37.497Z,86842.50
2023-02-11T00:45:09.984Z,86849.19
2023-02-11T00:47:36.899Z,86842.25
2023-02-11T00:50:05.412Z,86844.84
2023-02-11T00:52:32.708Z,86836.75
2023-02-11T00:54:59.774Z,86842.25
2023-02-11T00:57:26.603Z,86839.56
2023-02-11T00:59:53.439Z,86841.34
2023-02-11T01:02:20.197Z,86841.81
2023-02-11T01:04:47.162Z,86831.25
2023-02-11T01:07:14.099Z,86833.00
2023-02-11T01:09:48.263Z,86839.13
2023-02-11T01:12:15.180Z,86824.91
2023-02-11T01:14:42.017Z,86827.75
2023-02-11T01:17:08.909Z,86827.84
2023-02-11T01:19:37.144Z,86831.47
2023-02-11T01:22:04.379Z,86825.50
2023-02-11T01:24:31.272Z,86835.50
2023-02-11T01:26:58.193Z,86826.78
2023-02-11T01:29:25.162Z,86834.09
2023-02-11T01:31:54.455Z,86828.19
2023-02-11T01:34:21.353Z,86828.31
2023-02-11T01:36:50.089Z,86833.59
2023-02-11T01:39:16.990Z,86820.03
2023-02-11T01:41:46.289Z,86815.28
2023-02-11T01:44:42.623Z,86816.50
2023-02-11T01:47:09.764Z,86815.41
2023-02-11T01:49:38.812Z,86813.69
2023-02-11T01:52:24.087Z,86810.41
2023-02-11T01:55:14.931Z,86820.94
2023-02-11T01:57:43.392Z,86816.97
2023-02-11T02:00:21.677Z,86814.84
2023-02-11T02:03:07.051Z,86810.63
2023-02-11T02:05:42.898Z,86801.22
2023-02-11T02:08:12.490Z,86800.06
2023-02-11T02:10:41.828Z,86800.53
2023-02-11T02:13:08.787Z,86798.44
2023-02-11T02:15:39.350Z,86796.91
2023-02-11T02:18:21.042Z,86799.38
2023-02-11T02:20:50.797Z,86808.28
2023-02-11T02:23:32.881Z,86795.63
2023-02-11T02:25:59.790Z,86793.75
2023-02-11T02:28:49.629Z,86800.81
2023-02-11T02:31:30.668Z,86808.53
2023-02-11T02:34:04.822Z,86808.09
2023-02-11T02:36:37.386Z,86801.03
2023-02-11T02:39:08.265Z,86808.31
2023-02-11T02:41:36.140Z,86809.94
2023-02-11T02:44:03.302Z,86809.94
2023-02-11T02:46:32.153Z,86812.63
2023-02-11T02:49:00.171Z,86810.28
2023-02-11T02:51:27.006Z,86809.13
2023-02-11T02:54:12.805Z,86822.13
2023-02-11T02:56:39.637Z,86823.31
2023-02-11T02:59:06.455Z,86822.72
2023-02-11T03:01:33.302Z,86814.13
2023-02-11T03:04:12.194Z,86815.34
2023-02-11T03:06:38.973Z,86816.97
2023-02-11T03:09:13.225Z,86817.47
2023-02-11T03:11:40.133Z,86799.41
2023-02-11T03:14:10.710Z,86813.38
2023-02-11T03:16:39.485Z,86817.91
2023-02-11T03:19:10.615Z,86809.59
2023-02-11T03:21:38.932Z,86810.88
2023-02-11T03:24:12.575Z,86813.72
2023-02-11T03:26:46.792Z,86816.06
2023-02-11T03:29:33.855Z,86808.41
2023-02-11T03:32:16.170Z,86804.09
2023-02-11T03:34:55.291Z,86803.88
2023-02-11T03:37:48.370Z,86763.88
2023-02-11T03:40:18.082Z,86798.00
2023-02-11T03:42:57.396Z,86798.47
2023-02-11T03:45:25.134Z,86800.56
2023-02-11T03:48:04.330Z,86805.00
2023-02-11T03:50:32.151Z,86800.00
2023-02-11T03:53:00.622Z,86804.09
2023-02-11T03:55:28.347Z,86798.69
2023-02-11T03:57:55.581Z,86801.72
2023-02-11T04:00:29.307Z,86796.47
2023-02-11T04:02:56.284Z,86795.03
2023-02-11T04:05:23.125Z,86801.25
2023-02-11T04:07:50.127Z,86802.91
2023-02-11T04:10:16.982Z,86803.00
2023-02-11T04:12:43.809Z,86807.13
2023-02-11T04:15:10.693Z,86800.56
2023-02-11T04:17:37.614Z,86795.88
2023-02-11T04:20:04.634Z,86794.00
2023-02-11T04:22:31.655Z,86801.97
2023-02-11T04:24:58.528Z,86805.25
2023-02-11T04:27:25.277Z,86798.00
2023-02-11T04:29:52.257Z,86802.09
2023-02-11T04:32:19.158Z,86804.53
2023-02-11T04:34:46.049Z,86800.81
2023-02-11T04:37:12.875Z,86800.09
2023-02-11T04:39:39.693Z,86798.13
2023-02-11T04:42:07.014Z,86796.84
2023-02-11T04:44:33.875Z,86803.38
2023-02-11T04:47:01.075Z,86807.72
2023-02-11T04:49:28.014Z,86806.19
2023-02-11T04:51:54.804Z,86802.22
2023-02-11T04:54:22.290Z,86789.91
2023-02-11T04:56:49.807Z,86795.53
2023-02-11T04:59:16.838Z,86794.22
2023-02-11T05:01:43.639Z,86791.31
2023-02-11T05:04:10.540Z,86795.63
2023-02-11T05:06:38.474Z,86796.13
2023-02-11T05:09:05.605Z,86789.88
2023-02-11T05:11:33.063Z,86787.44
2023-02-11T05:13:59.906Z,86797.72
2023-02-11T05:16:26.775Z,86789.31
2023-02-11T05:18:55.817Z,86790.72
2023-02-11T05:21:22.816Z,86787.66
2023-02-11T05:23:49.891Z,86791.88
2023-02-11T05:26:17.231Z,86787.66
2023-02-11T05:28:44.545Z,86795.16
2023-02-11T05:31:15.017Z,86793.16
2023-02-11T05:33:42.452Z,86798.31
2023-02-11T05:36:10.965Z,86799.25
2023-02-11T05:38:38.450Z,86808.50
2023-02-11T05:41:06.080Z,86801.13
2023-02-11T05:43:35.218Z,86806.63
2023-02-11T05:46:02.437Z,86801.81
2023-02-11T05:48:38.058Z,86809.69
2023-02-11T05:51:05.049Z,86807.78
2023-02-11T05:53:31.879Z,86801.81
2023-02-11T05:55:58.812Z,86802.41
2023-02-11T05:58:25.851Z,86793.03
2023-02-11T06:00:52.688Z,86801.25
2023-02-11T06:03:19.491Z,86798.69
2023-02-11T06:05:46.436Z,86799.16
2023-02-11T06:08:13.205Z,86792.34
2023-02-11T06:10:42.632Z,86794.91
2023-02-11T06:13:09.422Z,86796.34
2023-02-11T06:15:36.348Z,86800.56
2023-02-11T06:18:03.225Z,86800.81
2023-02-11T06:20:30.132Z,86799.41
2023-02-11T06:22:57.015Z,86796.72
2023-02-11T06:25:23.872Z,86794.72
2023-02-11T06:27:50.738Z,86795.88
2023-02-11T06:30:17.933Z,86798.00
2023-02-11T06:32:45.921Z,86792.81
2023-02-11T06:35:13.757Z,86792.50
2023-02-11T06:37:41.456Z,86791.53
2023-02-11T06:40:08.793Z,86794.72
2023-02-11T06:42:36.406Z,86792.63
2023-02-11T06:45:13.119Z,86796.59
2023-02-11T06:47:40.734Z,86793.19
2023-02-11T06:50:08.795Z,86792.84
2023-02-11T06:52:36.069Z,86784.13
2023-02-11T06:55:03.270Z,86789.44
2023-02-11T06:57:30.707Z,86784.38
2023-02-11T06:59:57.643Z,86788.81
2023-02-11T07:02:24.494Z,86787.63
2023-02-11T07:04:51.342Z,86796.09
2023-02-11T07:07:19.390Z,86788.09
2023-02-11T07:09:46.153Z,86789.84
2023-02-11T07:12:13.035Z,86783.13
2023-02-11T07:14:40.003Z,86786.16
2023-02-11T07:17:07.027Z,86773.72
2023-02-11T07:19:33.972Z,86781.41
2023-02-11T07:22:00.879Z,86789.88
2023-02-11T07:24:27.718Z,86791.81
2023-02-11T07:26:54.673Z,86782.91
2023-02-11T07:29:21.549Z,86778.41
2023-02-11T07:31:48.677Z,86784.34
2023-02-11T07:34:15.894Z,86784.81
2023-02-11T07:36:43.912Z,86791.47
2023-02-11T07:39:20.187Z,86786.31
2023-02-11T07:41:49.112Z,86776.75
2023-02-11T07:44:16.588Z,86781.41
2023-02-11T07:46:45.320Z,86777.75
2023-02-11T07:49:12.979Z,86775.25
2023-02-11T07:51:39.886Z,86765.22
2023-02-11T07:54:07.022Z,86759.22
2023-02-11T07:56:34.133Z,86757.69
2023-02-11T07:59:01.894Z,86765.81
2023-02-11T08:01:28.988Z,86756.75
2023-02-11T08:03:56.494Z,86756.25
2023-02-11T08:06:24.381Z,86757.72
2023-02-11T08:08:51.218Z,86761.22
2023-02-11T08:11:20.666Z,86751.28
2023-02-11T08:13:48.022Z,86760.69
2023-02-11T08:16:19.876Z,86757.81
2023-02-11T08:18:46.791Z,86756.28
2023-02-11T08:21:14.027Z,86753.31
2023-02-11T08:23:41.645Z,86763.44
2023-02-11T08:26:13.345Z,86754.69
2023-02-11T08:28:41.125Z,86759.44
2023-02-11T08:31:12.420Z,86762.84
2023-02-11T08:33:41.091Z,86762.69
2023-02-11T08:36:12.364Z,86764.09
2023-02-11T08:38:39.448Z,86769.66
2023-02-11T08:41:07.106Z,86770.34
2023-02-11T08:43:34.673Z,86748.22
2023-02-11T08:46:02.367Z,86765.34
2023-02-11T08:48:29.964Z,86764.59
2023-02-11T08:50:57.484Z,86741.53
2023-02-11T08:53:24.375Z,86765.97
2023-02-11T08:55:52.802Z,86754.22
2023-02-11T08:58:20.344Z,86761.69
2023-02-11T09:00:48.096Z,86760.88
2023-02-11T09:03:15.743Z,86755.34
2023-02-11T09:05:43.518Z,86755.78
2023-02-11T09:08:10.536Z,86755.53
2023-02-11T09:10:37.361Z,86751.47
2023-02-11T09:13:04.270Z,86758.69
2023-02-11T09:15:31.058Z,86755.63
2023-02-11T09:17:58.142Z,86756.75
2023-02-11T09:20:26.697Z,86753.94
2023-02-11T09:22:54.299Z,86748.66
2023-02-11T09:25:21.558Z,86756.50
2023-02-11T09:27:48.583Z,86750.81
2023-02-11T09:30:15.458Z,86757.16
2023-02-11T09:32:42.202Z,86748.75
2023-02-11T09:35:09.316Z,86748.25
2023-02-11T09:37:37.421Z,86740.44
2023-02-11T09:40:04.545Z,86734.59
2023-02-11T09:42:37.578Z,86741.09
2023-02-11T09:45:05.410Z,86740.63
2023-02-11T09:47:33.758Z,86730.72
2023-02-11T09:50:02.754Z,86728.22
2023-02-11T09:53:05.069Z,86732.63
2023-02-11T09:55:37.964Z,86730.13
2023-02-11T09:58:07.679Z,86724.72
2023-02-11T10:00:38.346Z,86718.06
2023-02-11T10:03:20.328Z,86729.09
2023-02-11T10:05:47.149Z,86725.84
2023-02-11T10:08:16.573Z,86721.25
2023-02-11T10:10:46.543Z,86720.03
2023-02-11T10:13:13.490Z,86714.59
2023-02-11T10:15:47.391Z,86716.69
2023-02-11T10:18:33.031Z,86709.41
2023-02-11T10:21:02.594Z,86704.19
2023-02-11T10:23:31.280Z,86696.94
2023-02-11T10:25:59.235Z,86696.41
2023-02-11T10:28:39.650Z,86696.66
2023-02-11T10:31:11.595Z,86696.59
2023-02-11T10:33:51.739Z,86690.06
2023-02-11T10:36:19.327Z,86674.97
2023-02-11T10:38:46.277Z,86678.41
2023-02-11T10:41:33.101Z,86670.94
2023-02-11T10:44:08.124Z,86670.50
2023-02-11T10:46:37.104Z,86666.59
2023-02-11T10:49:04.255Z,86667.44
2023-02-11T10:51:35.306Z,86667.69
2023-02-11T10:54:05.536Z,86662.44
2023-02-11T10:56:36.651Z,86661.28
2023-02-11T10:59:16.048Z,86654.47
2023-02-11T11:01:49.119Z,86653.22
2023-02-11T11:04:33.946Z,86648.00
2023-02-11T11:07:10.652Z,86642.63
2023-02-11T11:10:04.034Z,86642.72
2023-02-11T11:12:33.352Z,86639.41
2023-02-11T11:15:03.437Z,86633.50
2023-02-11T11:17:30.486Z,86637.03
2023-02-11T11:20:17.518Z,86637.84
2023-02-11T11:22:45.648Z,86623.53
2023-02-11T11:25:26.628Z,86618.06
2023-02-11T11:27:55.084Z,86625.03
2023-02-11T11:30:23.486Z,86612.78
2023-02-11T11:32:50.361Z,86621.91
2023-02-11T11:35:30.285Z,86624.75
2023-02-11T11:38:01.886Z,86615.25
2023-02-11T11:40:30.346Z,86620.06
2023-02-11T11:43:04.957Z,86616.16
2023-02-11T11:45:31.860Z,86613.63
2023-02-11T11:48:00.817Z,86605.50
2023-02-11T11:51:06.210Z,86605.56
2023-02-11T11:53:35.977Z,86600.13
2023-02-11T11:56:03.095Z,86601.91
2023-02-11T11:58:31.592Z,86602.66
2023-02-11T12:01:15.492Z,86593.06
2023-02-11T12:04:02.660Z,86591.94
2023-02-11T12:06:29.466Z,86590.53
2023-02-11T12:08:56.314Z,86587.06
2023-02-11T12:11:25.868Z,86587.91
2023-02-11T12:14:04.990Z,86574.25
2023-02-11T12:16:31.820Z,86576.41
2023-02-11T12:19:10.657Z,86570.34
2023-02-11T12:21:49.577Z,86578.66
2023-02-11T12:24:24.211Z,86582.56
2023-02-11T12:27:02.102Z,86578.41
2023-02-11T12:29:55.813Z,86580.31
2023-02-11T12:32:28.802Z,86577.56
2023-02-11T12:34:58.749Z,86579.66
2023-02-11T12:37:48.524Z,86578.81
2023-02-11T12:40:26.976Z,86582.41
2023-02-11T12:43:20.045Z,86581.00
2023-02-11T12:45:59.469Z,86573.16
2023-02-11T12:48:44.370Z,86577.81
2023-02-11T12:51:17.348Z,86570.84
2023-02-11T12:54:04.717Z,86572.50
2023-02-11T12:56:41.154Z,86571.84
2023-02-11T12:59:14.594Z,86569.28
2023-02-11T13:01:43.142Z,86573.94
2023-02-11T13:04:28.453Z,86567.06
2023-02-11T13:07:02.511Z,86566.41
2023-02-11T13:09:32.692Z,86566.97
2023-02-11T13:12:22.485Z,86564.13
2023-02-11T13:14:50.332Z,86558.75
2023-02-11T13:17:22.652Z,86565.00
2023-02-11T13:19:52.839Z,86564.47
2023-02-11T13:22:19.857Z,86568.00
2023-02-11T13:25:18.965Z,86565.19
2023-02-11T13:27:51.478Z,86556.41
2023-02-11T13:30:26.305Z,86555.81
2023-02-11T13:32:56.008Z,86558.56
2023-02-11T13:35:40.035Z,86555.16
2023-02-11T13:38:17.671Z,86548.50
2023-02-11T13:40:44.731Z,86556.69
2023-02-11T13:43:23.019Z,86559.38
2023-02-11T13:45:51.863Z,86553.19
2023-02-11T13:48:22.975Z,86549.84
2023-02-11T13:50:51.461Z,86552.53
2023-02-11T13:53:19.092Z,86557.22
2023-02-11T13:55:47.621Z,86552.47
2023-02-11T13:58:14.507Z,86550.38
2023-02-11T14:00:47.399Z,86553.78
2023-02-11T14:03:32.990Z,86548.28
2023-02-11T14:06:27.623Z,86550.81
2023-02-11T14:09:07.149Z,86556.22
2023-02-11T14:11:34.068Z,86545.03
2023-02-11T14:14:03.679Z,86550.88
2023-02-11T14:16:38.021Z,86550.13
2023-02-11T14:19:06.655Z,86548.06
2023-02-11T14:21:43.869Z,86540.69
2023-02-11T14:24:14.596Z,86544.84
2023-02-11T14:26:47.001Z,86543.88
2023-02-11T14:29:19.997Z,86543.56
2023-02-11T14:32:06.140Z,86544.69
2023-02-11T14:34:42.371Z,86544.38
2023-02-11T14:37:09.419Z,86543.66
2023-02-11T14:39:49.665Z,86548.22
2023-02-11T14:42:24.229Z,86541.03
2023-02-11T14:44:51.945Z,86538.16
2023-02-11T14:47:20.495Z,86539.81
2023-02-11T14:49:48.643Z,86532.06
2023-02-11T14:52:35.616Z,86530.31
2023-02-11T14:55:18.835Z,86542.53
2023-02-11T14:57:45.977Z,86532.09
2023-02-11T15:00:21.518Z,86537.81
2023-02-11T15:02:48.902Z,86531.88
2023-02-11T15:05:19.387Z,86535.09
2023-02-11T15:07:50.687Z,86532.25
2023-02-11T15:10:37.847Z,86527.66
2023-02-11T15:13:05.344Z,86531.03
2023-02-11T15:15:32.953Z,86534.19
2023-02-11T15:18:01.826Z,86535.66
2023-02-11T15:20:32.035Z,86534.09
2023-02-11T15:23:00.795Z,86530.81
2023-02-11T15:25:28.425Z,86532.03
2023-02-11T15:27:57.189Z,86534.47
2023-02-11T15:30:24.066Z,86530.41
2023-02-11T15:32:58.998Z,86528.69
2023-02-11T15:35:37.235Z,86528.63
2023-02-11T15:38:04.715Z,86534.78
2023-02-11T15:40:36.212Z,86520.53
2023-02-11T15:43:04.552Z,86530.16
2023-02-11T15:45:31.468Z,86533.53
2023-02-11T15:48:08.006Z,86533.63
2023-02-11T15:50:40.850Z,86526.59
2023-02-11T15:53:13.875Z,86523.88
2023-02-11T15:55:41.726Z,86529.00
2023-02-11T15:58:10.065Z,86528.81
2023-02-11T16:00:38.684Z,86521.78
2023-02-11T16:03:05.580Z,86518.22
2023-02-11T16:05:36.715Z,86517.53
2023-02-11T16:08:33.036Z,86516.16
2023-02-11T16:11:03.580Z,86517.84
2023-02-11T16:13:33.728Z,86523.09
2023-02-11T16:16:05.363Z,86509.41
2023-02-11T16:18:40.065Z,86514.53
2023-02-11T16:21:14.268Z,86515.81
2023-02-11T16:23:44.569Z,86520.16
2023-02-11T16:26:43.282Z,86518.34
2023-02-11T16:29:23.664Z,86518.34
2023-02-11T16:31:50.633Z,86522.31
2023-02-11T16:34:19.152Z,86517.66
2023-02-11T16:36:47.025Z,86521.38
2023-02-11T16:39:14.105Z,86519.75
2023-02-11T16:41:40.978Z,86517.66
2023-02-11T16:44:08.005Z,86519.75
2023-02-11T16:46:36.722Z,86520.59
2023-02-11T16:49:10.366Z,86530.22
2023-02-11T16:51:41.590Z,86528.66
2023-02-11T16:54:13.529Z,86532.72
2023-02-11T16:56:40.470Z,86525.03
2023-02-11T16:59:07.291Z,86525.66
2023-02-11T17:01:35.036Z,86522.88
2023-02-11T17:04:01.996Z,86534.53
2023-02-11T17:06:29.045Z,86525.31
2023-02-11T17:08:56.017Z,86518.53
2023-02-11T17:11:22.775Z,86513.19
2023-02-11T17:13:49.754Z,86510.19
2023-02-11T17:16:22.676Z,86514.09
2023-02-11T17:18:49.720Z,86508.69
2023-02-11T17:21:16.982Z,86512.78
2023-02-11T17:23:45.957Z,86511.78
2023-02-11T17:26:12.993Z,86511.25
2023-02-11T17:28:39.789Z,86514.66
2023-02-11T17:31:07.782Z,86516.31
2023-02-11T17:33:36.243Z,86523.91
2023-02-11T17:36:11.642Z,86520.19
2023-02-11T17:38:38.463Z,86514.91
2023-02-11T17:41:05.612Z,86517.47
2023-02-11T17:43:33.019Z,86508.47
2023-02-11T17:46:00.170Z,86511.56
2023-02-11T17:48:27.006Z,86503.91
2023-02-11T17:50:53.887Z,86508.16
2023-02-11T17:53:20.730Z,86503.47
2023-02-11T17:55:47.824Z,86502.94
2023-02-11T17:58:15.053Z,86495.41
2023-02-11T18:00:43.025Z,86500.91
2023-02-11T18:03:09.960Z,86497.91
2023-02-11T18:05:37.147Z,86495.69
2023-02-11T18:08:05.297Z,86494.31
2023-02-11T18:10:33.740Z,86501.28
2023-02-11T18:13:01.155Z,86501.75
2023-02-11T18:15:28.093Z,86504.06
2023-02-11T18:17:55.466Z,86492.88
2023-02-11T18:20:22.430Z,86491.81
2023-02-11T18:22:49.272Z,86496.16
2023-02-11T18:25:16.246Z,86502.22
2023-02-11T18:27:43.322Z,86510.09
2023-02-11T18:30:15.074Z,86509.84
2023-02-11T18:32:45.947Z,86499.22
2023-02-11T18:35:15.200Z,86503.09
2023-02-11T18:37:42.846Z,86499.47
2023-02-11T18:40:11.260Z,86510.31
2023-02-11T18:42:38.196Z,86509.28
2023-02-11T18:45:09.735Z,86512.69
2023-02-11T18:47:37.849Z,86513.38
2023-02-11T18:50:05.280Z,86514.34
2023-02-11T18:52:33.333Z,86518.28
2023-02-11T18:55:00.311Z,86513.75
2023-02-11T18:57:27.134Z,86512.25
2023-02-11T18:59:54.051Z,86508.41
2023-02-11T19:02:21.062Z,86512.44
2023-02-11T19:04:48.178Z,86499.34
2023-02-11T19:07:15.200Z,86502.09
2023-02-11T19:09:42.204Z,86500.28
2023-02-11T19:12:09.463Z,86503.97
2023-02-11T19:14:36.681Z,86490.22
2023-02-11T19:17:05.123Z,86495.09
2023-02-11T19:19:35.617Z,86485.50
2023-02-11T19:22:03.004Z,86493.03
2023-02-11T19:24:30.472Z,86491.81
2023-02-11T19:26:58.865Z,86488.47
2023-02-11T19:29:25.859Z,86487.78
2023-02-11T19:31:52.943Z,86489.38
2023-02-11T19:34:22.927Z,86492.84
2023-02-11T19:36:50.191Z,86491.63
2023-02-11T19:39:17.157Z,86495.75
2023-02-11T19:41:44.102Z,86491.72
2023-02-11T19:44:13.276Z,86489.97
2023-02-11T19:46:43.524Z,86485.97
2023-02-11T19:49:11.538Z,86491.13
2023-02-11T19:51:39.628Z,86500.50
2023-02-11T19:54:07.083Z,86478.72
2023-02-11T19:56:34.111Z,86495.22
2023-02-11T19:59:01.940Z,86488.13
2023-02-11T20:01:28.820Z,86494.28
2023-02-11T20:03:55.809Z,86485.88
2023-02-11T20:06:24.629Z,86483.78
2023-02-11T20:08:59.026Z,86488.84
2023-02-11T20:11:30.914Z,86487.97
2023-02-11T20:14:00.643Z,86489.00
2023-02-11T20:16:45.037Z,86476.88
2023-02-11T20:19:18.099Z,86480.22
2023-02-11T20:21:47.381Z,86481.25
2023-02-11T20:24:15.288Z,86476.78
2023-02-11T20:26:42.687Z,86478.81
2023-02-11T20:29:09.855Z,86470.69
2023-02-11T20:31:37.136Z,86475.03
2023-02-11T20:34:04.207Z,86471.56
2023-02-11T20:36:32.410Z,86470.50
2023-02-11T20:38:59.887Z,86462.47
2023-02-11T20:41:28.644Z,86463.34
2023-02-11T20:43:56.110Z,86464.75
2023-02-11T20:46:23.864Z,86456.63
2023-02-11T20:48:51.407Z,86452.50
2023-02-11T20:51:22.937Z,86452.16
2023-02-11T20:53:51.330Z,86448.31
2023-02-11T20:56:20.048Z,86441.25
2023-02-11T20:58:46.952Z,86449.72
2023-02-11T21:01:25.042Z,86443.34
2023-02-11T21:03:59.361Z,86436.25
2023-02-11T21:06:34.368Z,86442.00
2023-02-11T21:09:01.457Z,86429.25
2023-02-11T21:11:28.670Z,86435.66
2023-02-11T21:13:55.628Z,86434.88
2023-02-11T21:16:22.867Z,86442.13
2023-02-11T21:18:50.337Z,86427.25
2023-02-11T21:21:18.310Z,86433.13
2023-02-11T21:23:45.458Z,86426.66
2023-02-11T21:26:12.777Z,86429.25
2023-02-11T21:28:41.034Z,86416.88
2023-02-11T21:31:09.830Z,86423.75
2023-02-11T21:33:36.756Z,86423.59
2023-02-11T21:36:05.903Z,86433.47
2023-02-11T21:38:32.988Z,86418.63
2023-02-11T21:41:05.937Z,86419.84
2023-02-11T21:43:33.556Z,86413.91
2023-02-11T21:46:00.666Z,86421.75
2023-02-11T21:48:27.608Z,86413.19
2023-02-11T21:50:54.796Z,86419.28
2023-02-11T21:53:21.609Z,86413.53
2023-02-11T21:55:51.369Z,86414.94
2023-02-11T21:58:19.670Z,86412.75
2023-02-11T22:00:46.713Z,86414.59
2023-02-11T22:03:13.554Z,86423.50
2023-02-11T22:05:41.081Z,86417.56
2023-02-11T22:08:07.860Z,86415.81
2023-02-11T22:10:34.779Z,86415.97
2023-02-11T22:13:01.585Z,86417.84
2023-02-11T22:15:28.570Z,86416.00
2023-02-11T22:17:55.358Z,86403.06
2023-02-11T22:20:22.260Z,86405.50
2023-02-11T22:22:49.438Z,86403.94
2023-02-11T22:25:19.550Z,86406.91
2023-02-11T22:27:46.542Z,86397.22
2023-02-11T22:30:14.372Z,86397.66
2023-02-11T22:32:42.635Z,86398.44
2023-02-11T22:35:09.646Z,86399.81
2023-02-11T22:37:36.585Z,86386.66
2023-02-11T22:40:03.633Z,86378.63
2023-02-11T22:42:30.542Z,86373.88
2023-02-11T22:44:57.497Z,86367.31
2023-02-11T22:47:24.291Z,86361.72
2023-02-11T22:49:51.165Z,86359.56
2023-02-11T22:52:18.137Z,86360.50
2023-02-11T22:54:45.153Z,86357.28
2023-02-11T22:57:12.072Z,86349.84
2023-02-11T22:59:38.876Z,86351.84
2023-02-11T23:02:05.852Z,86339.25
2023-02-11T23:04:32.724Z,86344.06
2023-02-11T23:06:59.573Z,86333.22
2023-02-11T23:09:26.401Z,86334.53
2023-02-11T23:11:54.679Z,86321.22
2023-02-11T23:14:21.649Z,86327.72
2023-02-11T23:16:49.767Z,86321.75
2023-02-11T23:19:17.164Z,86318.34
2023-02-11T23:21:44.193Z,86308.63
2023-02-11T23:24:12.435Z,86305.03
2023-02-11T23:26:40.153Z,86307.16
2023-02-11T23:29:07.365Z,86306.63
2023-02-11T23:31:37.678Z,86297.88
2023-02-11T23:34:04.858Z,86307.41
2023-02-11T23:36:31.736Z,86296.13
2023-02-11T23:38:58.995Z,86297.09
2023-02-11T23:41:26.055Z,86301.38
2023-02-11T23:43:54.198Z,86305.41
2023-02-11T23:46:24.644Z,86304.78
2023-02-11T23:48:51.747Z,86308.03
2023-02-11T23:51:18.706Z,86302.94
2023-02-11T23:53:46.392Z,86302.69
2023-02-11T23:56:14.965Z,86291.69
2023-02-11T23:58:41.946Z,86298.72
